createdAt,value
2023-01-15T00:00:39.181Z,56.35
2023-01-15T00:03:07.216Z,59.83
2023-01-15T00:05:49.935Z,51.35
2023-01-15T00:08:38.314Z,54.03
2023-01-15T00:11:14.040Z,58.28
2023-01-15T00:13:48.484Z,56.53
2023-01-15T00:16:23.725Z,54.30
2023-01-15T00:19:01.376Z,55.65
2023-01-15T00:21:39.194Z,49.83
2023-01-15T00:24:39.903Z,54.40
2023-01-15T00:27:43.781Z,53.50
2023-01-15T00:30:29.588Z,50.08
2023-01-15T00:33:06.356Z,44.13
2023-01-15T00:35:44.457Z,46.92
2023-01-15T00:38:21.110Z,51.90
2023-01-15T00:40:57.897Z,50.90
2023-01-15T00:43:25.002Z,52.33
2023-01-15T00:45:59.495Z,52.50
2023-01-15T00:48:28.857Z,54.28
2023-01-15T00:50:55.578Z,54.03
2023-01-15T00:53:31.785Z,48.28
2023-01-15T00:56:06.919Z,50.88
2023-01-15T00:58:36.835Z,54.67
2023-01-15T01:03:49.205Z,48.10
2023-01-15T01:06:17.331Z,51.55
2023-01-15T01:08:48.003Z,52.70
2023-01-15T01:11:17.446Z,53.58
2023-01-15T01:13:45.264Z,54.90
2023-01-15T01:16:27.418Z,52.00
2023-01-15T01:19:01.891Z,53.63
2023-01-15T01:21:28.711Z,53.92
2023-01-15T01:24:00.903Z,51.20
2023-01-15T01:26:31.414Z,55.30
2023-01-15T01:28:58.569Z,47.38
2023-01-15T01:31:28.301Z,48.50
2023-01-15T01:33:57.932Z,54.13
2023-01-15T01:36:33.940Z,51.95
2023-01-15T01:39:07.735Z,49.85
2023-01-15T01:41:36.554Z,53.42
2023-01-15T01:44:35.025Z,52.80
2023-01-15T01:47:16.596Z,53.70
2023-01-15T01:49:49.242Z,50.80
2023-01-15T01:52:21.326Z,53.45
2023-01-15T01:54:50.013Z,55.60
2023-01-15T02:00:07.247Z,53.88
2023-01-15T02:02:34.261Z,51.40
2023-01-15T02:05:07.469Z,52.30
2023-01-15T02:07:38.655Z,51.00
2023-01-15T02:10:17.267Z,52.15
2023-01-15T02:12:57.588Z,44.75
2023-01-15T02:15:38.686Z,47.97
2023-01-15T02:18:23.968Z,50.78
2023-01-15T02:21:30.340Z,50.47
2023-01-15T02:24:28.544Z,51.92
2023-01-15T02:27:19.664Z,50.28
2023-01-15T02:30:14.020Z,52.75
2023-01-15T02:35:58.574Z,51.20
2023-01-15T02:38:32.633Z,54.88
2023-01-15T02:41:09.453Z,49.10
2023-01-15T02:43:47.672Z,52.83
2023-01-15T02:46:29.817Z,51.80
2023-01-15T02:51:49.053Z,52.25
2023-01-15T02:54:30.232Z,51.83
2023-01-15T02:57:02.610Z,51.97
2023-01-15T02:59:44.100Z,55.47
2023-01-15T03:02:27.469Z,55.20
2023-01-15T03:05:43.876Z,52.42
2023-01-15T03:08:18.233Z,54.92
2023-01-15T03:11:07.611Z,55.10
2023-01-15T03:13:47.147Z,42.25
2023-01-15T03:16:35.194Z,50.72
2023-01-15T03:19:39.532Z,53.03
2023-01-15T03:22:13.335Z,53.08
2023-01-15T03:25:21.634Z,51.05
2023-01-15T03:27:55.327Z,50.90
2023-01-15T03:30:26.357Z,45.58
2023-01-15T03:33:01.941Z,52.35
2023-01-15T03:36:25.090Z,51.95
2023-01-15T03:39:09.001Z,51.72
2023-01-15T03:42:02.811Z,55.35
2023-01-15T03:44:58.882Z,51.63
2023-01-15T03:48:18.916Z,51.13
2023-01-15T03:51:34.756Z,52.15
2023-01-15T03:54:10.350Z,51.28
2023-01-15T04:00:34.424Z,51.90
2023-01-15T04:03:17.001Z,53.78
2023-01-15T04:05:44.540Z,52.72
2023-01-15T04:08:22.792Z,50.88
2023-01-15T04:11:22.384Z,53.35
2023-01-15T04:13:56.291Z,48.28
2023-01-15T04:16:41.662Z,51.50
2023-01-15T04:19:17.237Z,56.63
2023-01-15T04:21:44.376Z,53.40
2023-01-15T04:24:18.989Z,53.40
2023-01-15T04:26:58.106Z,53.92
2023-01-15T04:34:55.499Z,55.67
2023-01-15T04:37:23.237Z,49.15
2023-01-15T04:39:52.992Z,52.67
2023-01-15T04:42:48.467Z,52.47
2023-01-15T04:45:36.433Z,53.38
2023-01-15T04:48:15.266Z,51.55
2023-01-15T04:50:53.383Z,53.38
2023-01-15T04:53:25.920Z,54.47
2023-01-15T04:58:33.500Z,54.78
2023-01-15T05:01:54.383Z,54.20
2023-01-15T05:04:31.078Z,53.15
2023-01-15T05:07:06.187Z,54.40
2023-01-15T05:09:37.447Z,55.50
2023-01-15T05:12:22.017Z,56.15
2023-01-15T05:14:49.577Z,48.85
2023-01-15T05:17:41.401Z,47.20
2023-01-15T05:20:26.878Z,54.15
2023-01-15T05:23:09.367Z,54.28
2023-01-15T05:25:52.297Z,54.50
2023-01-15T05:28:31.676Z,57.70
2023-01-15T05:31:09.513Z,53.92
2023-01-15T05:33:47.029Z,53.15
2023-01-15T05:36:23.527Z,55.63
2023-01-15T05:38:50.457Z,47.90
2023-01-15T05:41:47.872Z,52.50
2023-01-15T05:44:34.566Z,47.63
2023-01-15T05:47:20.052Z,52.22
2023-01-15T05:49:48.771Z,54.28
2023-01-15T05:52:24.493Z,53.13
2023-01-15T05:55:01.877Z,56.97
2023-01-15T05:57:36.920Z,54.15
2023-01-15T06:00:09.981Z,50.13
2023-01-15T06:05:33.564Z,53.17
2023-01-15T06:08:23.022Z,55.72
2023-01-15T06:11:09.221Z,55.20
2023-01-15T06:13:48.453Z,52.10
2023-01-15T06:16:35.215Z,50.67
2023-01-15T06:19:15.718Z,53.28
2023-01-15T06:21:48.234Z,52.80
2023-01-15T06:24:23.664Z,50.77
2023-01-15T06:26:51.955Z,51.97
2023-01-15T06:29:30.016Z,51.15
2023-01-15T06:32:20.178Z,51.65
2023-01-15T06:34:49.962Z,52.97
2023-01-15T06:37:30.103Z,51.65
2023-01-15T06:40:06.803Z,53.58
2023-01-15T06:42:58.330Z,53.40
2023-01-15T06:45:44.062Z,50.78
2023-01-15T06:48:29.271Z,56.58
2023-01-15T06:51:11.417Z,53.92
2023-01-15T06:53:49.904Z,53.13
2023-01-15T06:56:35.557Z,51.67
2023-01-15T06:59:14.284Z,51.58
2023-01-15T07:02:01.640Z,53.80
2023-01-15T07:04:39.881Z,51.38
2023-01-15T07:07:32.686Z,53.63
2023-01-15T07:10:10.858Z,44.03
2023-01-15T07:12:52.389Z,56.58
2023-01-15T07:15:19.478Z,59.25
2023-01-15T07:17:52.281Z,57.35
2023-01-15T07:20:30.055Z,52.13
2023-01-15T07:22:56.848Z,56.88
2023-01-15T07:25:23.547Z,55.33
2023-01-15T07:28:07.451Z,52.78
2023-01-15T07:30:37.343Z,55.72
2023-01-15T07:33:25.138Z,54.42
2023-01-15T07:36:02.771Z,47.03
2023-01-15T07:38:31.322Z,50.33
2023-01-15T07:41:34.359Z,53.78
2023-01-15T07:44:39.134Z,54.03
2023-01-15T07:47:47.895Z,52.60
2023-01-15T07:50:30.740Z,53.35
2023-01-15T07:53:10.980Z,53.38
2023-01-15T07:55:37.802Z,51.55
2023-01-15T07:58:14.975Z,56.03
2023-01-15T08:01:12.618Z,55.50
2023-01-15T08:03:46.886Z,54.25
2023-01-15T08:06:15.598Z,55.20
2023-01-15T08:08:47.672Z,53.00
2023-01-15T08:11:35.503Z,53.88
2023-01-15T08:14:23.978Z,46.90
2023-01-15T08:16:50.825Z,53.60
2023-01-15T08:19:27.714Z,55.50
2023-01-15T08:21:54.534Z,52.95
2023-01-15T08:24:33.275Z,57.25
2023-01-15T08:27:09.030Z,58.03
2023-01-15T08:29:49.535Z,56.65
2023-01-15T08:32:19.284Z,59.70
2023-01-15T08:34:55.510Z,54.10
2023-01-15T08:37:34.185Z,50.70
2023-01-15T08:40:21.221Z,54.42
2023-01-15T08:42:59.890Z,55.47
2023-01-15T08:45:32.523Z,57.13
2023-01-15T08:48:05.592Z,56.80
2023-01-15T08:50:38.022Z,55.75
2023-01-15T08:53:28.229Z,55.70
2023-01-15T08:55:56.876Z,49.80
2023-01-15T08:58:33.546Z,58.30
2023-01-15T09:01:12.061Z,56.47
2023-01-15T09:03:48.355Z,57.90
2023-01-15T09:06:28.834Z,55.67
2023-01-15T09:08:56.421Z,56.65
2023-01-15T09:11:25.148Z,55.08
2023-01-15T09:13:55.035Z,57.15
2023-01-15T09:16:41.916Z,55.90
2023-01-15T09:19:10.449Z,54.60
2023-01-15T09:21:45.670Z,49.50
2023-01-15T09:24:31.404Z,55.08
2023-01-15T09:27:25.472Z,55.92
2023-01-15T09:32:40.001Z,57.42
2023-01-15T09:35:10.891Z,55.35
2023-01-15T09:37:40.909Z,54.72
2023-01-15T09:40:20.176Z,56.90
2023-01-15T09:43:04.202Z,55.83
2023-01-15T09:45:39.974Z,55.78
2023-01-15T09:48:41.256Z,50.95
2023-01-15T09:51:36.910Z,56.80
2023-01-15T09:54:11.103Z,57.22
2023-01-15T09:56:55.757Z,55.50
2023-01-15T09:59:41.383Z,55.03
2023-01-15T10:02:47.391Z,52.88
2023-01-15T10:05:23.788Z,57.58
2023-01-15T10:08:07.374Z,56.22
2023-01-15T10:10:46.584Z,56.47
2023-01-15T10:13:31.754Z,54.70
2023-01-15T10:15:59.570Z,56.90
2023-01-15T10:18:37.118Z,56.17
2023-01-15T10:21:39.715Z,58.03
2023-01-15T10:24:53.360Z,57.40
2023-01-15T10:27:48.928Z,57.22
2023-01-15T10:30:43.265Z,58.83
2023-01-15T10:33:34.919Z,58.45
2023-01-15T10:36:26.305Z,56.00
2023-01-15T10:42:33.672Z,59.72
2023-01-15T10:45:14.854Z,46.53
2023-01-15T10:48:31.235Z,56.80
2023-01-15T10:51:10.530Z,58.10
2023-01-15T10:54:09.276Z,57.35
2023-01-15T10:57:09.442Z,56.47
2023-01-15T10:59:57.045Z,61.22
2023-01-15T11:02:31.854Z,62.75
2023-01-15T11:05:12.449Z,59.90
2023-01-15T11:08:26.362Z,60.70
2023-01-15T11:10:43.504Z,58.35
2023-01-15T11:13:41.571Z,61.95
2023-01-15T11:16:46.278Z,61.55
2023-01-15T11:19:43.158Z,58.70
2023-01-15T11:22:20.737Z,58.75
2023-01-15T11:24:54.357Z,61.97
2023-01-15T11:27:31.277Z,58.35
2023-01-15T11:30:15.469Z,58.75
2023-01-15T11:32:51.817Z,59.10
2023-01-15T11:35:19.608Z,58.63
2023-01-15T11:37:49.230Z,62.55
2023-01-15T11:40:25.730Z,58.35
2023-01-15T11:43:13.771Z,61.95
2023-01-15T11:46:08.165Z,62.75
2023-01-15T11:49:09.611Z,49.05
2023-01-15T11:51:56.191Z,51.03
2023-01-15T11:54:40.941Z,59.63
2023-01-15T11:57:13.095Z,63.38
2023-01-15T11:59:41.510Z,62.72
2023-01-15T12:02:46.766Z,58.85
2023-01-15T12:05:37.029Z,59.63
2023-01-15T12:08:37.145Z,49.90
2023-01-15T12:11:57.148Z,58.85
2023-01-15T12:14:49.619Z,57.72
2023-01-15T12:17:42.072Z,58.63
2023-01-15T12:20:50.090Z,62.08
2023-01-15T12:24:13.477Z,61.15
2023-01-15T12:27:11.803Z,59.00
2023-01-15T12:29:48.440Z,63.83
2023-01-15T12:32:28.999Z,52.83
2023-01-15T12:35:28.518Z,59.47
2023-01-15T12:38:39.485Z,57.45
2023-01-15T12:41:15.029Z,63.85
2023-01-15T12:44:18.370Z,61.47
2023-01-15T12:46:48.051Z,60.85
2023-01-15T12:50:08.355Z,62.30
2023-01-15T12:52:44.545Z,59.80
2023-01-15T12:55:20.017Z,60.42
2023-01-15T12:58:01.254Z,61.58
2023-01-15T13:01:06.015Z,59.28
2023-01-15T13:03:49.417Z,61.25
2023-01-15T13:06:24.496Z,64.10
2023-01-15T13:09:17.893Z,61.22
2023-01-15T13:11:44.893Z,62.95
2023-01-15T13:14:22.715Z,49.97
2023-01-15T13:17:06.039Z,59.38
2023-01-15T13:20:15.415Z,63.47
2023-01-15T13:23:04.858Z,54.35
2023-01-15T13:25:43.663Z,61.15
2023-01-15T13:28:57.474Z,62.00
2023-01-15T13:31:39.534Z,63.50
2023-01-15T13:34:39.139Z,60.13
2023-01-15T13:37:44.211Z,59.53
2023-01-15T13:40:38.898Z,48.58
2023-01-15T13:43:19.225Z,61.58
2023-01-15T13:45:59.094Z,63.78
2023-01-15T13:48:57.549Z,65.68
2023-01-15T13:51:41.342Z,63.53
2023-01-15T13:54:33.932Z,62.08
2023-01-15T13:57:28.085Z,66.10
2023-01-15T14:00:05.017Z,61.95
2023-01-15T14:02:50.670Z,49.72
2023-01-15T14:05:23.332Z,63.65
2023-01-15T14:08:00.995Z,65.80
2023-01-15T14:10:55.133Z,64.70
2023-01-15T14:13:54.157Z,65.95
2023-01-15T14:17:02.492Z,63.28
2023-01-15T14:19:56.843Z,65.20
2023-01-15T14:25:48.530Z,67.78
2023-01-15T14:28:43.293Z,62.83
2023-01-15T14:31:34.625Z,60.58
2023-01-15T14:34:19.173Z,54.75
2023-01-15T14:36:52.168Z,60.25
2023-01-15T14:40:04.231Z,61.85
2023-01-15T14:43:03.827Z,49.70
2023-01-15T14:45:39.530Z,54.28
2023-01-15T14:48:21.954Z,47.40
2023-01-15T14:50:50.961Z,46.00
2023-01-15T14:53:43.463Z,52.38
2023-01-15T14:56:40.072Z,44.13
2023-01-15T14:59:28.698Z,58.58
2023-01-15T15:02:09.170Z,51.85
2023-01-15T15:04:55.604Z,46.92
2023-01-15T15:07:35.196Z,46.33
2023-01-15T15:10:16.718Z,45.00
2023-01-15T15:13:13.535Z,55.53
2023-01-15T15:16:10.307Z,55.60
2023-01-15T15:19:01.615Z,46.22
2023-01-15T15:21:44.198Z,44.42
2023-01-15T15:24:55.829Z,47.55
2023-01-15T15:27:24.652Z,56.33
2023-01-15T15:30:07.034Z,44.15
2023-01-15T15:32:51.091Z,41.60
2023-01-15T15:35:52.756Z,42.97
2023-01-15T15:38:22.025Z,56.15
2023-01-15T15:41:06.442Z,43.35
2023-01-15T15:44:15.785Z,43.65
2023-01-15T15:47:09.492Z,45.50
2023-01-15T15:49:49.189Z,46.45
2023-01-15T15:52:24.104Z,55.33
2023-01-15T15:55:01.524Z,47.00
2023-01-15T15:57:45.919Z,44.55
2023-01-15T16:00:57.425Z,55.63
2023-01-15T16:03:34.916Z,55.35
2023-01-15T16:06:24.140Z,55.75
2023-01-15T16:09:07.064Z,56.67
2023-01-15T16:12:07.419Z,52.35
2023-01-15T16:14:38.584Z,58.35
2023-01-15T16:17:07.932Z,59.88
2023-01-15T16:22:21.446Z,45.63
2023-01-15T16:24:59.459Z,60.85
2023-01-15T16:27:36.732Z,58.88
2023-01-15T16:30:07.300Z,59.63
2023-01-15T16:32:39.472Z,45.97
2023-01-15T16:35:27.462Z,53.53
2023-01-15T16:38:03.660Z,64.50
2023-01-15T16:40:46.064Z,66.03
2023-01-15T16:46:26.910Z,52.10
2023-01-15T16:49:33.600Z,53.03
2023-01-15T16:52:23.804Z,59.75
2023-01-15T16:55:04.367Z,53.72
2023-01-15T16:57:40.323Z,55.33
2023-01-15T17:03:30.467Z,63.15
2023-01-15T17:06:36.068Z,62.92
2023-01-15T17:09:23.833Z,67.47
2023-01-15T17:12:21.342Z,68.55
2023-01-15T17:14:58.267Z,68.63
2023-01-15T17:17:34.088Z,70.10
2023-01-15T17:20:24.542Z,72.72
2023-01-15T17:22:59.833Z,74.68
2023-01-15T17:25:35.285Z,73.35
2023-01-15T17:28:06.461Z,73.80
2023-01-15T17:30:51.870Z,73.25
2023-01-15T17:33:28.146Z,74.40
2023-01-15T17:36:11.109Z,72.22
2023-01-15T17:38:41.963Z,71.65
2023-01-15T17:41:22.002Z,76.53
2023-01-15T17:44:00.513Z,76.50
2023-01-15T17:46:36.454Z,77.47
2023-01-15T17:49:05.885Z,77.45
2023-01-15T17:51:36.818Z,73.32
2023-01-15T17:54:09.182Z,73.72
2023-01-15T17:56:56.195Z,79.30
2023-01-15T17:59:56.598Z,55.85
2023-01-15T18:02:48.611Z,68.68
2023-01-15T18:05:52.659Z,71.33
2023-01-15T18:08:27.071Z,75.55
2023-01-15T18:11:10.522Z,73.25
2023-01-15T18:13:47.991Z,77.13
2023-01-15T18:19:03.236Z,76.72
2023-01-15T18:21:58.427Z,61.80
2023-01-15T18:24:40.478Z,61.72
2023-01-15T18:27:22.300Z,53.80
2023-01-15T18:29:51.004Z,52.03
2023-01-15T18:32:29.622Z,62.08
2023-01-15T18:35:01.966Z,50.47
2023-01-15T18:37:32.014Z,66.18
2023-01-15T18:40:05.803Z,68.82
2023-01-15T18:42:55.935Z,54.75
2023-01-15T18:45:41.551Z,65.43
2023-01-15T18:48:25.157Z,50.30
2023-01-15T18:51:06.765Z,59.28
2023-01-15T18:53:34.045Z,49.97
2023-01-15T18:56:06.858Z,50.78
2023-01-15T18:58:41.028Z,56.85
2023-01-15T19:01:10.931Z,49.05
2023-01-15T19:03:50.094Z,61.15
2023-01-15T19:06:29.999Z,59.67
2023-01-15T19:09:06.885Z,66.22
2023-01-15T19:11:43.177Z,53.38
2023-01-15T19:14:28.976Z,50.38
2023-01-15T19:17:15.615Z,52.45
2023-01-15T19:20:05.265Z,53.05
2023-01-15T19:23:06.236Z,65.43
2023-01-15T19:26:13.085Z,66.55
2023-01-15T19:29:08.783Z,51.55
2023-01-15T19:31:39.575Z,67.65
2023-01-15T19:34:32.121Z,68.18
2023-01-15T19:36:56.628Z,70.53
2023-01-15T19:39:30.169Z,72.45
2023-01-15T19:42:25.826Z,75.05
2023-01-15T19:45:11.382Z,79.40
2023-01-15T19:47:59.651Z,78.22
2023-01-15T19:50:36.740Z,71.85
2023-01-15T19:53:03.867Z,72.60
2023-01-15T19:55:35.379Z,75.13
2023-01-15T19:58:18.875Z,71.18
2023-01-15T20:01:17.736Z,75.43
2023-01-15T20:04:00.212Z,77.80
2023-01-15T20:09:26.214Z,74.68
2023-01-15T20:12:25.655Z,79.07
2023-01-15T20:15:03.131Z,73.15
2023-01-15T20:17:39.327Z,74.35
2023-01-15T20:20:06.900Z,77.72
2023-01-15T20:22:35.233Z,75.43
2023-01-15T20:25:05.334Z,76.40
2023-01-15T20:27:36.793Z,71.97
2023-01-15T20:30:30.258Z,64.07
2023-01-15T20:33:02.351Z,69.57
2023-01-15T20:35:36.603Z,68.40
2023-01-15T20:38:12.291Z,69.47
2023-01-15T20:40:40.423Z,70.15
2023-01-15T20:43:26.663Z,71.03
2023-01-15T20:45:53.733Z,69.15
2023-01-15T20:48:41.213Z,70.20
2023-01-15T20:51:12.678Z,75.25
2023-01-15T20:53:41.757Z,76.22
2023-01-15T20:56:19.173Z,73.55
2023-01-15T20:58:52.151Z,75.10
2023-01-15T21:01:19.449Z,77.43
2023-01-15T21:03:46.822Z,76.65
2023-01-15T21:06:27.800Z,73.32
2023-01-15T21:09:01.165Z,75.30
2023-01-15T21:11:43.500Z,71.63
2023-01-15T21:14:10.969Z,64.68
2023-01-15T21:16:40.845Z,76.05
2023-01-15T21:19:10.564Z,80.65
2023-01-15T21:21:56.564Z,81.88
2023-01-15T21:24:26.497Z,82.72
2023-01-15T21:27:00.670Z,87.93
2023-01-15T21:29:33.272Z,81.90
2023-01-15T21:34:41.906Z,72.60
2023-01-15T21:37:12.627Z,79.50
2023-01-15T21:39:43.843Z,83.53
2023-01-15T21:42:47.256Z,82.40
2023-01-15T21:45:22.459Z,81.30
2023-01-15T21:47:49.833Z,79.68
2023-01-15T21:50:26.533Z,75.07
2023-01-15T21:52:56.119Z,79.03
2023-01-15T21:55:23.612Z,77.55
2023-01-15T21:57:54.269Z,73.95
2023-01-15T22:00:32.258Z,73.53
2023-01-15T22:03:01.807Z,69.30
2023-01-15T22:05:40.572Z,69.40
2023-01-15T22:08:41.687Z,69.97
2023-01-15T22:11:20.667Z,67.80
2023-01-15T22:13:52.653Z,63.70
2023-01-15T22:16:22.638Z,58.35
2023-01-15T22:18:53.733Z,58.30
2023-01-15T22:21:28.280Z,62.78
2023-01-15T22:24:10.939Z,59.58
2023-01-15T22:26:38.849Z,54.75
2023-01-15T22:31:47.696Z,50.90
2023-01-15T22:34:36.487Z,47.60
2023-01-15T22:37:12.192Z,48.42
2023-01-15T22:39:44.831Z,45.80
2023-01-15T22:44:59.917Z,41.38
2023-01-15T22:47:29.055Z,38.20
2023-01-15T22:50:46.347Z,38.85
2023-01-15T22:53:23.891Z,40.25
2023-01-15T22:56:05.310Z,36.30
2023-01-15T22:58:35.273Z,37.15
2023-01-15T23:01:03.219Z,37.90
2023-01-15T23:03:42.207Z,36.05
2023-01-15T23:06:16.902Z,35.15
2023-01-15T23:08:51.884Z,33.17
2023-01-15T23:11:20.497Z,32.22
2023-01-15T23:13:51.679Z,31.35
2023-01-15T23:16:22.881Z,32.38
2023-01-15T23:19:02.599Z,33.33
2023-01-15T23:21:30.543Z,31.08
2023-01-15T23:24:08.693Z,31.95
2023-01-15T23:26:46.565Z,31.95
2023-01-15T23:29:21.684Z,30.27
2023-01-15T23:32:06.972Z,29.08
2023-01-15T23:34:55.733Z,26.02
2023-01-15T23:40:29.923Z,26.48
2023-01-15T23:43:23.762Z,28.23
2023-01-15T23:46:20.641Z,25.67
2023-01-15T23:48:59.657Z,27.20
2023-01-15T23:51:59.277Z,29.90
2023-01-15T23:54:34.715Z,29.88
2023-01-15T23:57:21.572Z,30.38
